createdAt,value
2023-05-22T00:00:28.700Z,240.7857
2023-05-22T00:01:36.642Z,235.9286
2023-05-22T00:02:44.832Z,236.4286
2023-05-22T00:03:52.761Z,235.2143
2023-05-22T00:05:00.965Z,234.2143
2023-05-22T00:06:08.862Z,234.8571
2023-05-22T00:07:17.075Z,235.2143
2023-05-22T00:08:26.289Z,237.0000
2023-05-22T00:09:37.805Z,237.6667
2023-05-22T00:10:45.914Z,239.2857
2023-05-22T00:11:53.958Z,236.5714
2023-05-22T00:13:02.155Z,235.5714
2023-05-22T00:14:10.194Z,234.0000
2023-05-22T00:15:18.281Z,232.9286
2023-05-22T00:16:26.395Z,229.5714
2023-05-22T00:17:34.595Z,226.7143
2023-05-22T00:18:42.688Z,231.6429
2023-05-22T00:19:50.526Z,229.7143
2023-05-22T00:20:58.690Z,226.6429
2023-05-22T00:22:06.637Z,226.5714
2023-05-22T00:23:15.731Z,230.0000
2023-05-22T00:24:22.636Z,227.2857
2023-05-22T00:25:30.718Z,226.0000
2023-05-22T00:26:38.898Z,227.7857
2023-05-22T00:27:46.983Z,227.7143
2023-05-22T00:28:55.014Z,225.5714
2023-05-22T00:30:03.057Z,228.3571
2023-05-22T00:31:11.276Z,226.9286
2023-05-22T00:32:19.231Z,229.9286
2023-05-22T00:33:27.294Z,230.5000
2023-05-22T00:34:35.335Z,228.4286
2023-05-22T00:35:43.466Z,230.3571
2023-05-22T00:36:51.454Z,230.5714
2023-05-22T00:37:59.514Z,233.0714
2023-05-22T00:39:07.428Z,235.7857
2023-05-22T00:40:15.494Z,236.0714
2023-05-22T00:41:23.587Z,232.7143
2023-05-22T00:42:31.731Z,229.7143
2023-05-22T00:43:39.815Z,227.6429
2023-05-22T00:44:47.852Z,228.7857
2023-05-22T00:45:55.803Z,230.2143
2023-05-22T00:47:04.088Z,232.0714
2023-05-22T00:48:12.069Z,230.0000
2023-05-22T00:49:20.106Z,231.0714
2023-05-22T00:50:28.221Z,228.6429
2023-05-22T00:51:36.316Z,226.9286
2023-05-22T00:52:44.354Z,224.5714
2023-05-22T00:53:52.244Z,229.7857
2023-05-22T00:55:00.289Z,230.7143
2023-05-22T00:56:08.365Z,231.9286
2023-05-22T00:57:16.811Z,232.0714
2023-05-22T00:58:24.609Z,234.2143
2023-05-22T00:59:32.652Z,232.4286
2023-05-22T01:00:41.062Z,232.6429
2023-05-22T01:01:48.873Z,231.3571
2023-05-22T01:02:57.009Z,230.8571
2023-05-22T01:04:05.122Z,233.0000
2023-05-22T01:05:13.169Z,235.5000
2023-05-22T01:06:21.020Z,234.5000
2023-05-22T01:07:29.169Z,231.0714
2023-05-22T01:08:37.036Z,227.6429
2023-05-22T01:09:45.096Z,229.3571
2023-05-22T01:10:53.117Z,230.7143
2023-05-22T01:12:01.415Z,228.8571
2023-05-22T01:13:09.516Z,228.3571
2023-05-22T01:14:17.443Z,226.2857
2023-05-22T01:15:25.493Z,224.1429
2023-05-22T01:16:33.603Z,222.3571
2023-05-22T01:17:41.757Z,218.7143
2023-05-22T01:18:49.700Z,220.3571
2023-05-22T01:19:57.771Z,220.2857
2023-05-22T01:21:05.810Z,218.9286
2023-05-22T01:22:13.917Z,217.4286
2023-05-22T01:23:22.014Z,214.4286
2023-05-22T01:24:29.989Z,216.9286
2023-05-22T01:25:38.049Z,216.4286
2023-05-22T01:26:46.146Z,217.9286
2023-05-22T01:27:54.049Z,220.3571
2023-05-22T01:29:02.130Z,218.5714
2023-05-22T01:30:10.198Z,218.5000
2023-05-22T01:31:18.353Z,223.4286
2023-05-22T01:32:26.655Z,221.5714
2023-05-22T01:33:34.657Z,223.0000
2023-05-22T01:34:42.554Z,224.0714
2023-05-22T01:35:50.624Z,225.1429
2023-05-22T01:36:58.663Z,229.0000
2023-05-22T01:38:06.831Z,232.0714
2023-05-22T01:39:14.776Z,231.4286
2023-05-22T01:40:22.852Z,232.4286
2023-05-22T01:41:30.957Z,229.4286
2023-05-22T01:42:38.855Z,229.6429
2023-05-22T01:43:46.949Z,230.0714
2023-05-22T01:44:54.970Z,225.5714
2023-05-22T01:46:03.207Z,225.0714
2023-05-22T01:47:11.308Z,221.8571
2023-05-22T01:48:19.305Z,218.4286
2023-05-22T01:49:27.360Z,215.0000
2023-05-22T01:50:35.391Z,212.7857
2023-05-22T01:51:43.508Z,213.6429
2023-05-22T01:52:51.643Z,211.4286
2023-05-22T01:53:59.586Z,207.7857
2023-05-22T01:55:07.652Z,205.7857
2023-05-22T01:56:15.781Z,205.1429
2023-05-22T01:57:23.612Z,201.6429
2023-05-22T01:58:31.754Z,207.6429
2023-05-22T01:59:39.746Z,202.7143
2023-05-22T02:00:48.066Z,201.8571
2023-05-22T02:01:56.007Z,201.4286
2023-05-22T02:03:04.293Z,200.0714
2023-05-22T02:04:12.118Z,203.7143
2023-05-22T02:05:20.155Z,201.8571
2023-05-22T02:06:28.269Z,202.5000
2023-05-22T02:07:36.336Z,203.5714
2023-05-22T02:08:44.514Z,202.5714
2023-05-22T02:09:52.413Z,198.2143
2023-05-22T02:11:00.555Z,199.2857
2023-05-22T02:12:08.424Z,197.3571
2023-05-22T02:13:16.542Z,201.0000
2023-05-22T02:14:24.539Z,205.5000
2023-05-22T02:15:32.766Z,205.5000
2023-05-22T02:16:41.155Z,203.3571
2023-05-22T02:17:48.920Z,205.2143
2023-05-22T02:18:56.972Z,201.2143
2023-05-22T02:20:04.970Z,197.8571
2023-05-22T02:21:13.055Z,200.0000
2023-05-22T02:22:21.096Z,198.3571
2023-05-22T02:23:29.334Z,201.1429
2023-05-22T02:24:37.246Z,201.4286
2023-05-22T02:25:45.381Z,202.2143
2023-05-22T02:26:53.203Z,193.0000
2023-05-22T02:28:01.303Z,194.0000
2023-05-22T02:29:09.379Z,189.2857
2023-05-22T02:30:17.524Z,187.7143
2023-05-22T02:31:25.632Z,192.1429
2023-05-22T02:32:33.809Z,194.2143
2023-05-22T02:33:41.914Z,192.7143
2023-05-22T02:34:49.753Z,189.5000
2023-05-22T02:35:57.887Z,192.0000
2023-05-22T02:37:05.944Z,185.5714
2023-05-22T02:38:13.924Z,181.6429
2023-05-22T02:39:22.198Z,180.5000
2023-05-22T02:40:30.198Z,178.6429
2023-05-22T02:41:37.991Z,181.4286
2023-05-22T02:42:46.041Z,184.2857
2023-05-22T02:43:54.070Z,188.2143
2023-05-22T02:45:02.505Z,190.7143
2023-05-22T02:46:10.346Z,192.3571
2023-05-22T02:47:18.458Z,195.6429
2023-05-22T02:48:26.686Z,195.6429
2023-05-22T02:49:34.497Z,197.7857
2023-05-22T02:50:42.679Z,197.5714
2023-05-22T02:51:50.650Z,199.9286
2023-05-22T02:52:58.746Z,202.3571
2023-05-22T02:54:06.776Z,202.2857
2023-05-22T02:55:14.860Z,202.8571
2023-05-22T02:56:22.748Z,204.8571
2023-05-22T02:57:30.861Z,203.0000
2023-05-22T02:58:38.852Z,208.2143
2023-05-22T02:59:47.073Z,205.4286
2023-05-22T03:00:55.110Z,203.1429
2023-05-22T03:02:03.378Z,209.2857
2023-05-22T03:03:11.480Z,213.4286
2023-05-22T03:04:19.511Z,215.3571
2023-05-22T03:05:27.670Z,213.9286
2023-05-22T03:06:35.586Z,214.8571
2023-05-22T03:07:44.617Z,215.6429
2023-05-22T03:08:56.572Z,212.5333
2023-05-22T03:10:04.422Z,213.2857
2023-05-22T03:11:12.460Z,216.4286
2023-05-22T03:12:20.498Z,208.4286
2023-05-22T03:13:28.858Z,214.1429
2023-05-22T03:14:36.845Z,215.1429
2023-05-22T03:15:44.850Z,213.0714
2023-05-22T03:16:52.885Z,213.8571
2023-05-22T03:18:01.087Z,215.2143
2023-05-22T03:19:09.233Z,215.2857
2023-05-22T03:20:17.282Z,211.3571
2023-05-22T03:21:25.178Z,212.9286
2023-05-22T03:22:33.204Z,212.0714
2023-05-22T03:23:41.305Z,212.8571
2023-05-22T03:24:49.175Z,211.5714
2023-05-22T03:25:57.267Z,211.4286
2023-05-22T03:27:05.335Z,215.3571
2023-05-22T03:28:13.573Z,216.5714
2023-05-22T03:29:21.789Z,219.3571
2023-05-22T03:30:29.652Z,216.1429
2023-05-22T03:31:37.668Z,214.5000
2023-05-22T03:32:45.833Z,210.5714
2023-05-22T03:33:53.858Z,207.5714
2023-05-22T03:35:01.896Z,207.7143
2023-05-22T03:36:10.181Z,204.1429
2023-05-22T03:37:18.018Z,203.7857
2023-05-22T03:38:26.469Z,207.7143
2023-05-22T03:39:34.004Z,208.6429
2023-05-22T03:40:42.268Z,207.0000
2023-05-22T03:41:50.108Z,208.0000
2023-05-22T03:42:58.303Z,201.2857
2023-05-22T03:44:06.373Z,194.5714
2023-05-22T03:45:14.645Z,193.5000
2023-05-22T03:46:22.687Z,192.7857
2023-05-22T03:47:30.570Z,189.7143
2023-05-22T03:48:38.613Z,185.1429
2023-05-22T03:49:46.558Z,184.7143
2023-05-22T03:50:54.859Z,192.2857
2023-05-22T03:52:02.793Z,193.2143
2023-05-22T03:53:11.035Z,195.1429
2023-05-22T03:54:18.777Z,198.4286
2023-05-22T03:55:26.917Z,197.0000
2023-05-22T03:56:34.909Z,199.7857
2023-05-22T03:57:43.143Z,193.8571
2023-05-22T03:58:51.170Z,194.2857
2023-05-22T03:59:59.293Z,190.0000
2023-05-22T04:01:07.420Z,192.3571
2023-05-22T04:02:15.501Z,191.6429
2023-05-22T04:03:23.580Z,196.5000
2023-05-22T04:04:31.501Z,194.6429
2023-05-22T04:05:39.619Z,190.0000
2023-05-22T04:06:47.603Z,190.9286
2023-05-22T04:07:55.678Z,195.6429
2023-05-22T04:09:03.617Z,191.3571
2023-05-22T04:10:11.654Z,194.6429
2023-05-22T04:11:19.756Z,198.0000
2023-05-22T04:12:27.941Z,196.5714
2023-05-22T04:13:35.978Z,199.0714
2023-05-22T04:14:44.041Z,197.8571
2023-05-22T04:15:52.211Z,197.5714
2023-05-22T04:17:00.370Z,196.0714
2023-05-22T04:18:08.331Z,197.7857
2023-05-22T04:19:16.343Z,196.8571
2023-05-22T04:20:24.398Z,197.6429
2023-05-22T04:21:32.462Z,197.5714
2023-05-22T04:22:40.494Z,194.5714
2023-05-22T04:23:48.571Z,194.2143
2023-05-22T04:24:56.491Z,195.5000
2023-05-22T04:26:04.573Z,202.6429
2023-05-22T04:27:12.603Z,198.5000
2023-05-22T04:28:20.774Z,196.8571
2023-05-22T04:29:28.870Z,196.7143
2023-05-22T04:30:37.495Z,192.3571
2023-05-22T04:31:45.208Z,193.2143
2023-05-22T04:32:53.041Z,196.0000
2023-05-22T04:34:01.145Z,195.5714
2023-05-22T04:35:09.200Z,194.9286
2023-05-22T04:36:17.271Z,200.2857
2023-05-22T04:37:25.285Z,203.5714
2023-05-22T04:38:33.345Z,202.8571
2023-05-22T04:39:41.278Z,197.7143
2023-05-22T04:40:49.364Z,197.2857
2023-05-22T04:41:57.401Z,197.4286
2023-05-22T04:43:05.726Z,192.4286
2023-05-22T04:44:13.652Z,194.0000
2023-05-22T04:45:21.688Z,198.5000
2023-05-22T04:46:29.889Z,198.2143
2023-05-22T04:47:37.832Z,202.2143
2023-05-22T04:48:45.893Z,202.9286
2023-05-22T04:49:54.062Z,206.3571
2023-05-22T04:51:01.895Z,202.2857
2023-05-22T04:52:10.099Z,200.0714
2023-05-22T04:53:18.167Z,200.9286
2023-05-22T04:54:26.080Z,197.5000
2023-05-22T04:55:34.305Z,201.7143
2023-05-22T04:56:42.222Z,202.3571
2023-05-22T04:57:50.386Z,202.3571
2023-05-22T04:58:58.595Z,203.7143
2023-05-22T05:00:06.524Z,205.7143
2023-05-22T05:01:14.682Z,210.2143
2023-05-22T05:02:22.785Z,208.5000
2023-05-22T05:03:30.703Z,210.2857
2023-05-22T05:04:38.790Z,208.2857
2023-05-22T05:05:46.987Z,209.2857
2023-05-22T05:06:54.872Z,210.7857
2023-05-22T05:08:03.001Z,210.6429
2023-05-22T05:09:10.875Z,212.7857
2023-05-22T05:10:18.949Z,213.7143
2023-05-22T05:11:27.008Z,214.0714
2023-05-22T05:12:35.190Z,217.8571
2023-05-22T05:13:43.363Z,215.9286
2023-05-22T05:14:51.533Z,216.5000
2023-05-22T05:15:59.519Z,215.0714
2023-05-22T05:17:07.424Z,215.9286
2023-05-22T05:18:15.565Z,211.8571
2023-05-22T05:19:23.683Z,211.2143
2023-05-22T05:20:31.629Z,209.7857
2023-05-22T05:21:39.677Z,211.7143
2023-05-22T05:22:47.738Z,210.6429
2023-05-22T05:23:55.664Z,210.6429
2023-05-22T05:25:03.759Z,216.5714
2023-05-22T05:26:11.804Z,212.2857
2023-05-22T05:27:19.987Z,214.1429
2023-05-22T05:28:28.037Z,216.8571
2023-05-22T05:29:36.115Z,216.5000
2023-05-22T05:30:44.357Z,217.9286
2023-05-22T05:31:52.232Z,216.5714
2023-05-22T05:33:00.317Z,219.2857
2023-05-22T05:34:08.373Z,218.1429
2023-05-22T05:35:16.414Z,218.5000
2023-05-22T05:36:24.514Z,216.8571
2023-05-22T05:37:32.541Z,215.8571
2023-05-22T05:38:40.469Z,218.2857
2023-05-22T05:39:48.536Z,225.0714
2023-05-22T05:40:56.613Z,230.4286
2023-05-22T05:42:04.798Z,234.2857
2023-05-22T05:43:12.850Z,242.7857
2023-05-22T05:44:20.936Z,247.0714
2023-05-22T05:45:29.042Z,245.8571
2023-05-22T05:46:37.172Z,236.0000
2023-05-22T05:47:45.107Z,242.0714
2023-05-22T05:48:53.191Z,249.5714
2023-05-22T05:50:01.206Z,256.0714
2023-05-22T05:51:09.316Z,256.4286
2023-05-22T05:52:17.358Z,262.7857
2023-05-22T05:53:25.274Z,261.2143
2023-05-22T05:54:33.321Z,260.8571
2023-05-22T05:55:41.395Z,256.7143
2023-05-22T05:56:49.654Z,256.0714
2023-05-22T05:57:57.627Z,253.7857
2023-05-22T05:59:05.679Z,254.7857
2023-05-22T06:00:14.014Z,259.2857
2023-05-22T06:01:21.810Z,261.2143
2023-05-22T06:02:30.037Z,264.8571
2023-05-22T06:03:38.388Z,255.3571
2023-05-22T06:04:45.969Z,255.0000
2023-05-22T06:05:54.212Z,254.2143
2023-05-22T06:07:02.142Z,250.4286
2023-05-22T06:08:10.046Z,246.7143
2023-05-22T06:09:18.131Z,240.2143
2023-05-22T06:10:26.174Z,243.0000
2023-05-22T06:11:34.382Z,243.9286
2023-05-22T06:12:42.442Z,245.2857
2023-05-22T06:13:50.516Z,247.7143
2023-05-22T06:14:58.565Z,254.4286
2023-05-22T06:16:07.003Z,255.3571
2023-05-22T06:17:14.707Z,255.6429
2023-05-22T06:18:22.904Z,251.0000
2023-05-22T06:19:30.841Z,247.1429
2023-05-22T06:20:39.028Z,246.0714
2023-05-22T06:21:46.821Z,242.2857
2023-05-22T06:22:54.844Z,242.6429
2023-05-22T06:24:02.897Z,249.5714
2023-05-22T06:25:11.245Z,251.5714
2023-05-22T06:26:19.187Z,255.7857
2023-05-22T06:27:27.382Z,256.2857
2023-05-22T06:28:35.237Z,259.1429
2023-05-22T06:29:43.332Z,261.9286
2023-05-22T06:30:51.350Z,261.9286
2023-05-22T06:31:59.502Z,264.4286
2023-05-22T06:33:07.674Z,263.8571
2023-05-22T06:34:15.648Z,263.2143
2023-05-22T06:35:23.742Z,261.2143
2023-05-22T06:36:31.597Z,262.5000
2023-05-22T06:37:39.611Z,266.2857
2023-05-22T06:38:47.684Z,273.6429
2023-05-22T06:39:56.006Z,274.8571
2023-05-22T06:41:03.973Z,275.1429
2023-05-22T06:42:12.068Z,267.6429
2023-05-22T06:43:20.191Z,266.4286
2023-05-22T06:44:28.085Z,268.2857
2023-05-22T06:45:36.160Z,282.5714
2023-05-22T06:46:44.272Z,284.5714
2023-05-22T06:47:52.312Z,278.1429
2023-05-22T06:49:00.380Z,273.5714
2023-05-22T06:50:08.358Z,280.5000
2023-05-22T06:51:16.348Z,279.0000
2023-05-22T06:52:24.394Z,273.2857
2023-05-22T06:53:32.412Z,282.7857
2023-05-22T06:54:40.586Z,283.7857
2023-05-22T06:55:48.676Z,274.9286
2023-05-22T06:56:56.796Z,274.1429
2023-05-22T06:58:04.797Z,274.2857
2023-05-22T06:59:12.974Z,276.5714
2023-05-22T07:00:21.919Z,276.5000
2023-05-22T07:01:29.021Z,270.0714
2023-05-22T07:02:37.075Z,262.6429
2023-05-22T07:03:45.077Z,261.7143
2023-05-22T07:04:53.445Z,262.6429
2023-05-22T07:06:01.120Z,263.1429
2023-05-22T07:07:09.142Z,258.6429
2023-05-22T07:08:17.222Z,260.0714
2023-05-22T07:09:25.403Z,262.2857
2023-05-22T07:10:33.522Z,266.0714
2023-05-22T07:11:41.567Z,262.0714
2023-05-22T07:12:49.742Z,265.4286
2023-05-22T07:13:57.711Z,262.8571
2023-05-22T07:15:05.924Z,262.0000
2023-05-22T07:16:13.825Z,260.8571
2023-05-22T07:17:22.060Z,260.2143
2023-05-22T07:18:29.940Z,256.2857
2023-05-22T07:19:37.970Z,254.8571
2023-05-22T07:20:45.923Z,253.7143
2023-05-22T07:21:53.964Z,249.5000
2023-05-22T07:23:02.057Z,250.2857
2023-05-22T07:24:10.214Z,250.9286
2023-05-22T07:25:18.244Z,249.5000
2023-05-22T07:26:26.337Z,252.4286
2023-05-22T07:27:34.455Z,258.2143
2023-05-22T07:28:42.516Z,262.6429
2023-05-22T07:29:50.512Z,265.1429
2023-05-22T07:30:58.721Z,263.1429
2023-05-22T07:32:06.693Z,261.7857
2023-05-22T07:33:14.767Z,262.5714
2023-05-22T07:34:22.804Z,259.4286
2023-05-22T07:35:30.696Z,257.0714
2023-05-22T07:55:45.224Z,1.0909
2023-05-22T07:56:52.774Z,0.7857
2023-05-22T07:58:01.038Z,2.5000
2023-05-22T07:59:09.108Z,5.6429
2023-05-22T08:00:17.132Z,8.0714
2023-05-22T08:01:25.151Z,4.5000
2023-05-22T08:02:33.144Z,7.2857
2023-05-22T08:03:41.512Z,8.7857
2023-05-22T08:04:49.455Z,7.4286
2023-05-22T08:05:57.370Z,4.7143
2023-05-22T08:07:05.500Z,9.7857
2023-05-22T08:08:13.506Z,17.2857
2023-05-22T08:09:21.686Z,13.0000
2023-05-22T08:10:33.402Z,17.2857
2023-05-22T08:11:42.696Z,14.4286
2023-05-22T08:12:50.660Z,13.8571
2023-05-22T08:13:58.596Z,12.3571
2023-05-22T08:15:06.944Z,11.0000
2023-05-22T08:16:14.793Z,5.4286
2023-05-22T08:17:22.897Z,10.4286
2023-05-22T08:18:30.945Z,20.4286
2023-05-22T08:19:39.100Z,29.2857
2023-05-22T08:20:46.928Z,26.7857
2023-05-22T08:21:55.079Z,27.2143
2023-05-22T08:23:03.049Z,28.5714
2023-05-22T08:24:11.309Z,28.5714
2023-05-22T08:25:19.287Z,31.4286
2023-05-22T08:26:27.226Z,35.3571
2023-05-22T08:27:35.384Z,39.6429
2023-05-22T08:28:43.368Z,49.5000
2023-05-22T08:29:51.536Z,50.9286
2023-05-22T08:30:59.618Z,51.0000
2023-05-22T08:32:07.553Z,51.3571
2023-05-22T08:33:15.801Z,52.7143
2023-05-22T08:34:23.675Z,56.8571
2023-05-22T08:35:32.051Z,59.0000
2023-05-22T08:36:39.933Z,63.6429
2023-05-22T08:37:47.992Z,74.3571
2023-05-22T08:38:56.065Z,88.8571
2023-05-22T08:40:04.176Z,90.2857
2023-05-22T08:41:12.151Z,77.5714
2023-05-22T08:42:20.242Z,67.6429
2023-05-22T08:43:28.225Z,60.9286
2023-05-22T08:44:36.597Z,61.5714
2023-05-22T08:45:44.514Z,57.9286
2023-05-22T08:46:52.572Z,60.1429
2023-05-22T08:48:00.552Z,63.8571
2023-05-22T08:49:08.506Z,69.0714
2023-05-22T08:50:16.698Z,73.0000
2023-05-22T08:51:24.700Z,71.6429
2023-05-22T08:52:32.647Z,69.6429
2023-05-22T08:53:41.016Z,65.0000
2023-05-22T08:54:48.942Z,54.5714
2023-05-22T08:55:56.847Z,52.1429
2023-05-22T08:57:05.048Z,54.4286
2023-05-22T08:58:13.099Z,51.9286
2023-05-22T08:59:21.347Z,46.5714
2023-05-22T09:00:29.101Z,40.1429
2023-05-22T09:01:37.472Z,40.7143
2023-05-22T09:02:45.363Z,37.7143
2023-05-22T09:03:53.559Z,40.5000
2023-05-22T09:05:01.524Z,31.6429
2023-05-22T09:06:09.553Z,23.7143
2023-05-22T09:07:17.586Z,15.7857
2023-05-22T09:08:25.681Z,19.8571
2023-05-22T09:09:33.765Z,30.6429
2023-05-22T09:10:41.886Z,44.0000
2023-05-22T09:11:49.798Z,42.5714
2023-05-22T09:12:58.036Z,39.8571
2023-05-22T09:14:05.961Z,49.4286
2023-05-22T09:15:14.082Z,43.2857
2023-05-22T09:16:22.162Z,36.2143
2023-05-22T09:17:30.242Z,34.0000
2023-05-22T09:18:38.264Z,33.1429
2023-05-22T09:19:46.440Z,24.0714
2023-05-22T09:20:54.193Z,18.6429
2023-05-22T09:22:02.477Z,19.2857
2023-05-22T09:23:10.483Z,25.7143
2023-05-22T09:24:18.360Z,28.5000
2023-05-22T09:25:26.589Z,34.5000
2023-05-22T09:26:34.616Z,41.9286
2023-05-22T09:27:42.664Z,41.8571
2023-05-22T09:28:50.756Z,34.9286
2023-05-22T09:29:58.871Z,37.0714
2023-05-22T09:31:07.016Z,41.2857
2023-05-22T09:32:14.800Z,50.2857
2023-05-22T09:33:23.000Z,56.2143
2023-05-22T09:34:31.163Z,46.2857
2023-05-22T09:35:39.217Z,44.5000
2023-05-22T09:36:47.141Z,42.4286
2023-05-22T09:37:55.290Z,45.2143
2023-05-22T09:39:03.275Z,49.9286
2023-05-22T09:40:11.395Z,58.9286
2023-05-22T09:41:19.576Z,66.2857
2023-05-22T09:42:27.474Z,81.1429
2023-05-22T09:43:35.532Z,89.4286
2023-05-22T09:44:43.776Z,84.3571
2023-05-22T09:45:51.675Z,84.4286
2023-05-22T09:46:59.712Z,80.5000
2023-05-22T09:48:07.783Z,73.3571
2023-05-22T09:49:16.998Z,63.8571
2023-05-22T09:50:24.110Z,50.6429
2023-05-22T09:51:31.976Z,49.0000
2023-05-22T09:52:40.069Z,46.4286
2023-05-22T09:53:48.055Z,44.7857
2023-05-22T09:54:56.241Z,49.0714
2023-05-22T09:56:04.284Z,57.0714
2023-05-22T09:57:12.281Z,52.7857
2023-05-22T09:58:20.188Z,66.1429
2023-05-22T09:59:28.382Z,86.0000
2023-05-22T10:00:36.474Z,112.9286
2023-05-22T10:01:44.523Z,141.0714
2023-05-22T10:02:52.653Z,171.6429
2023-05-22T10:04:00.553Z,199.3571
2023-05-22T10:05:08.776Z,231.0714
2023-05-22T10:06:16.842Z,263.7857
2023-05-22T10:07:24.910Z,297.5714
2023-05-22T10:08:33.037Z,324.6429
2023-05-22T10:09:40.997Z,340.5714
2023-05-22T10:10:49.100Z,365.8571
2023-05-22T10:11:57.212Z,382.1429
2023-05-22T10:13:05.173Z,398.0714
2023-05-22T10:14:13.241Z,400.0714
2023-05-22T10:15:21.316Z,413.6429
2023-05-22T10:16:29.502Z,432.5714
2023-05-22T10:17:37.477Z,430.2857
2023-05-22T10:18:45.604Z,425.2857
2023-05-22T10:19:53.705Z,425.5000
2023-05-22T10:21:01.736Z,439.5000
2023-05-22T10:22:09.709Z,459.5714
2023-05-22T10:23:17.804Z,490.7143
2023-05-22T10:24:25.887Z,509.7857
2023-05-22T10:25:33.938Z,510.7143
2023-05-22T10:26:42.154Z,500.0000
2023-05-22T10:27:49.941Z,497.9286
2023-05-22T10:28:58.122Z,515.2857
2023-05-22T10:30:06.065Z,530.0000
2023-05-22T10:31:14.391Z,531.2857
2023-05-22T10:32:22.543Z,523.7857
2023-05-22T10:33:30.268Z,522.4286
2023-05-22T10:34:38.484Z,519.4286
2023-05-22T10:35:46.499Z,510.2857
2023-05-22T10:37:00.427Z,508.3571
2023-05-22T10:38:07.781Z,518.9286
2023-05-22T10:39:15.579Z,530.0714
2023-05-22T10:40:23.690Z,548.9286
2023-05-22T10:41:31.789Z,563.2143
2023-05-22T10:42:39.650Z,578.2143
2023-05-22T10:43:47.909Z,600.0000
2023-05-22T10:44:55.818Z,613.0000
2023-05-22T10:46:04.136Z,604.1429
2023-05-22T10:47:12.208Z,601.7143
2023-05-22T10:48:20.173Z,607.0000
2023-05-22T10:49:28.270Z,620.6429
2023-05-22T10:50:36.276Z,635.4286
2023-05-22T10:51:44.418Z,652.5714
2023-05-22T10:52:52.451Z,664.2857
2023-05-22T10:54:00.557Z,674.4286
2023-05-22T10:55:08.578Z,666.5714
2023-05-22T10:56:16.585Z,665.0000
2023-05-22T10:57:24.922Z,667.9286
2023-05-22T10:58:32.819Z,669.7857
2023-05-22T10:59:40.754Z,674.3571
2023-05-22T11:00:49.092Z,677.8571
2023-05-22T11:01:57.056Z,684.2143
2023-05-22T11:03:17.185Z,686.7143
2023-05-22T11:04:18.065Z,683.7143
2023-05-22T11:05:26.104Z,677.4286
2023-05-22T11:06:34.451Z,671.2143
2023-05-22T11:07:42.315Z,667.3571
2023-05-22T11:08:50.215Z,657.6429
2023-05-22T11:09:58.477Z,642.8571
2023-05-22T11:11:06.548Z,624.3571
2023-05-22T11:12:14.689Z,599.9286
2023-05-22T11:13:22.647Z,585.1429
2023-05-22T11:14:30.715Z,573.8571
2023-05-22T11:15:38.920Z,546.6429
2023-05-22T11:16:46.995Z,515.9286
2023-05-22T11:17:54.938Z,469.0714
2023-05-22T11:19:21.124Z,441.5714
2023-05-22T11:20:15.977Z,420.4286
2023-05-22T11:21:23.995Z,396.0000
2023-05-22T11:22:32.176Z,372.0714
2023-05-22T11:23:40.287Z,351.5000
2023-05-22T11:24:48.199Z,331.9286
2023-05-22T11:25:56.332Z,316.5714
2023-05-22T11:27:04.372Z,305.7857
2023-05-22T11:28:12.488Z,294.8571
2023-05-22T11:29:20.495Z,277.1429
2023-05-22T11:30:28.560Z,263.0000
2023-05-22T11:31:36.699Z,262.0714
2023-05-22T11:32:44.866Z,256.6429
2023-05-22T11:33:52.759Z,241.0000
2023-05-22T11:35:00.980Z,216.5714
2023-05-22T11:36:08.862Z,198.3571
2023-05-22T11:37:16.968Z,188.0714
2023-05-22T11:38:25.203Z,181.1429
2023-05-22T11:39:33.107Z,184.9286
2023-05-22T11:40:41.175Z,194.8571
2023-05-22T11:41:49.257Z,204.2857
2023-05-22T11:42:57.551Z,215.7857
2023-05-22T11:44:05.387Z,217.3571
2023-05-22T11:45:13.455Z,205.6429
2023-05-22T11:46:21.397Z,211.6429
2023-05-22T11:47:29.637Z,229.6429
2023-05-22T11:48:37.502Z,245.0714
2023-05-22T11:49:45.696Z,278.5000
2023-05-22T11:50:54.036Z,288.0000
2023-05-22T11:52:01.877Z,304.4286
2023-05-22T11:53:09.918Z,339.8571
2023-05-22T11:54:18.057Z,378.9286
2023-05-22T11:55:26.240Z,420.1429
2023-05-22T11:56:34.124Z,450.1429
2023-05-22T11:57:42.213Z,481.2857
2023-05-22T11:58:50.322Z,511.2857
2023-05-22T11:59:58.388Z,535.8571
2023-05-22T12:01:06.426Z,551.3571
2023-05-22T12:02:14.534Z,562.7857
2023-05-22T12:03:24.555Z,586.5714
2023-05-22T12:04:35.596Z,613.0000
2023-05-22T12:05:43.668Z,615.0714
2023-05-22T12:06:51.751Z,610.9286
2023-05-22T12:07:59.909Z,616.4286
2023-05-22T12:09:07.886Z,634.0714
2023-05-22T12:10:16.157Z,661.4286
2023-05-22T12:11:24.037Z,666.9286
2023-05-22T12:12:32.157Z,684.5000
2023-05-22T12:13:40.190Z,699.5000
2023-05-22T12:14:48.172Z,776.8571
2023-05-22T12:15:56.527Z,831.7143
2023-05-22T12:17:04.456Z,916.5000
2023-05-22T12:18:12.461Z,933.2143
2023-05-22T12:19:20.664Z,951.7143
2023-05-22T12:20:28.666Z,995.7143
2023-05-22T12:21:36.892Z,1027.3572
2023-05-22T12:22:45.020Z,1021.8571
2023-05-22T12:23:52.781Z,1010.2857
2023-05-22T12:25:00.994Z,1031.0000
2023-05-22T12:26:09.133Z,1068.7142
2023-05-22T12:27:17.191Z,1095.7142
2023-05-22T12:28:25.281Z,1102.7142
2023-05-22T12:29:33.266Z,1143.5000
2023-05-22T12:30:41.496Z,1142.7142
2023-05-22T12:31:49.703Z,1113.7142
2023-05-22T12:32:57.683Z,1103.2858
2023-05-22T12:34:05.568Z,1074.2142
2023-05-22T12:35:13.708Z,1098.4286
2023-05-22T12:36:21.758Z,1106.2858
2023-05-22T12:37:29.861Z,1123.5714
2023-05-22T12:38:37.917Z,1148.7142
2023-05-22T12:39:45.990Z,1163.5000
2023-05-22T12:40:53.920Z,1155.1428
2023-05-22T12:42:02.360Z,1204.0000
2023-05-22T12:43:10.476Z,1191.2858
2023-05-22T12:44:18.307Z,1199.8572
2023-05-22T12:45:26.406Z,1205.4286
2023-05-22T12:46:34.681Z,1205.0714
2023-05-22T12:47:42.816Z,1105.5714
2023-05-22T12:48:50.659Z,1055.2142
2023-05-22T12:49:58.779Z,1044.8572
2023-05-22T12:51:06.789Z,1058.8572
2023-05-22T12:52:14.885Z,1089.2858
2023-05-22T12:53:22.858Z,1101.8572
2023-05-22T12:54:31.085Z,1109.2858
2023-05-22T12:55:39.133Z,1133.0714
2023-05-22T12:56:47.216Z,1131.5000
2023-05-22T12:57:55.360Z,1206.4286
2023-05-22T12:59:03.306Z,1268.0000
2023-05-22T13:00:11.521Z,1271.1428
2023-05-22T13:01:19.421Z,1275.8572
2023-05-22T13:02:27.698Z,1281.2142
2023-05-22T13:03:35.762Z,1268.0714
2023-05-22T13:04:43.901Z,1273.0714
2023-05-22T13:05:51.876Z,1258.7858
2023-05-22T13:07:00.001Z,1212.2858
2023-05-22T13:08:08.059Z,1031.5714
2023-05-22T13:09:16.123Z,870.7857
2023-05-22T13:10:24.298Z,832.4286
2023-05-22T13:11:32.279Z,818.7143
2023-05-22T13:12:40.195Z,808.5714
2023-05-22T13:13:48.696Z,791.7143
2023-05-22T13:14:56.492Z,802.0714
2023-05-22T13:16:04.481Z,813.7143
2023-05-22T13:17:12.700Z,818.1429
2023-05-22T13:18:20.760Z,754.3571
2023-05-22T13:19:28.977Z,690.2857
2023-05-22T13:20:36.887Z,695.9286
2023-05-22T13:21:45.030Z,708.1429
2023-05-22T13:22:53.005Z,691.7857
2023-05-22T13:24:01.176Z,674.1429
2023-05-22T13:25:09.227Z,667.7143
2023-05-22T13:26:17.303Z,661.9286
2023-05-22T13:27:25.365Z,666.0714
2023-05-22T13:28:33.600Z,672.1429
2023-05-22T13:29:41.587Z,668.0000
2023-05-22T13:30:49.602Z,673.7143
2023-05-22T13:31:57.677Z,667.2857
2023-05-22T13:33:05.732Z,668.8571
2023-05-22T13:34:13.986Z,678.8571
2023-05-22T13:35:21.896Z,679.5714
2023-05-22T13:36:29.850Z,676.4286
2023-05-22T13:37:38.050Z,668.3571
2023-05-22T13:38:46.023Z,667.7857
2023-05-22T13:39:54.437Z,662.7857
2023-05-22T13:41:02.323Z,657.4286